createdAt,value
2018-09-11T00:01:57.272Z,98.10
2018-09-11T00:04:25.368Z,98.10
2018-09-11T00:06:53.461Z,98.30
2018-09-11T00:09:21.545Z,98.30
2018-09-11T00:11:49.641Z,98.40
2018-09-11T00:14:17.729Z,98.30
2018-09-11T00:16:45.844Z,98.30
2018-09-11T00:19:13.965Z,98.30
2018-09-11T00:21:42.040Z,98.30
2018-09-11T00:24:10.132Z,98.30
2018-09-11T00:26:38.212Z,98.20
2018-09-11T00:29:06.281Z,98.10
2018-09-11T00:31:34.596Z,98.10
2018-09-11T00:34:02.705Z,98.20
2018-09-11T00:36:30.836Z,98.50
2018-09-11T00:38:58.941Z,98.60
2018-09-11T00:41:27.025Z,98.50
2018-09-11T00:43:55.098Z,98.70
2018-09-11T00:46:23.157Z,98.70
2018-09-11T00:48:51.238Z,98.30
2018-09-11T00:51:19.328Z,98.60
2018-09-11T00:53:47.404Z,98.80
2018-09-11T00:56:15.499Z,98.80
2018-09-11T00:58:43.573Z,98.90
2018-09-11T01:01:11.647Z,98.90
2018-09-11T01:03:39.729Z,99.10
2018-09-11T01:06:07.788Z,99.10
2018-09-11T01:08:35.857Z,99.40
2018-09-11T01:11:03.918Z,99.40
2018-09-11T01:13:32.013Z,99.70
2018-09-11T01:16:00.421Z,99.80
2018-09-11T01:18:28.513Z,99.80
2018-09-11T01:20:56.582Z,99.90
2018-09-11T01:23:24.647Z,99.80
2018-09-11T01:25:52.725Z,99.90
2018-09-11T01:28:20.781Z,99.90
2018-09-11T01:30:48.873Z,99.90
2018-09-11T01:33:16.928Z,99.90
2018-09-11T01:35:45.005Z,99.90
2018-09-11T01:38:13.061Z,99.90
2018-09-11T01:40:41.133Z,99.90
2018-09-11T01:43:09.220Z,99.90
2018-09-11T01:45:37.301Z,99.90
2018-09-11T01:48:05.365Z,99.90
2018-09-11T01:50:33.469Z,99.90
2018-09-11T01:53:01.638Z,99.80
2018-09-11T01:55:29.773Z,99.70
2018-09-11T01:57:57.866Z,99.80
2018-09-11T02:00:25.932Z,99.90
2018-09-11T02:02:54.013Z,99.70
2018-09-11T02:05:22.076Z,99.90
2018-09-11T02:07:50.148Z,99.90
2018-09-11T02:10:18.333Z,99.90
2018-09-11T02:12:46.401Z,99.90
2018-09-11T02:15:14.480Z,99.90
2018-09-11T02:17:42.554Z,99.90
2018-09-11T02:20:10.596Z,99.90
2018-09-11T02:22:38.699Z,99.90
2018-09-11T02:25:06.793Z,99.90
2018-09-11T02:27:34.880Z,99.90
2018-09-11T02:30:02.957Z,99.90
2018-09-11T02:32:31.124Z,99.90
2018-09-11T02:34:59.231Z,99.90
2018-09-11T02:37:27.336Z,99.90
2018-09-11T02:39:55.440Z,99.90
2018-09-11T02:42:23.561Z,99.90
2018-09-11T02:44:51.649Z,99.90
2018-09-11T02:47:19.713Z,99.90
2018-09-11T02:49:47.856Z,99.90
2018-09-11T02:52:15.935Z,99.90
2018-09-11T02:54:44.021Z,99.90
2018-09-11T02:57:12.117Z,99.90
2018-09-11T02:59:40.245Z,99.90
2018-09-11T03:02:08.402Z,99.90
2018-09-11T03:04:36.656Z,99.90
2018-09-11T03:07:04.832Z,99.90
2018-09-11T03:09:33.085Z,99.90
2018-09-11T03:12:01.197Z,99.90
2018-09-11T03:14:29.332Z,99.90
2018-09-11T03:16:57.831Z,99.90
2018-09-11T03:19:25.957Z,99.90
2018-09-11T03:21:54.060Z,99.90
2018-09-11T03:24:22.133Z,99.90
2018-09-11T03:26:50.216Z,99.90
2018-09-11T03:29:18.307Z,99.90
2018-09-11T03:31:46.388Z,99.90
2018-09-11T03:34:14.458Z,99.90
2018-09-11T03:36:42.582Z,99.90
2018-09-11T03:39:11.201Z,99.90
2018-09-11T03:41:39.300Z,99.90
2018-09-11T03:44:07.379Z,99.90
2018-09-11T03:46:35.484Z,99.90
2018-09-11T03:49:03.561Z,99.90
2018-09-11T03:51:31.680Z,99.90
2018-09-11T03:53:59.784Z,99.90
2018-09-11T03:56:27.896Z,99.90
2018-09-11T03:58:55.969Z,99.90
2018-09-11T04:01:24.041Z,99.90
2018-09-11T04:03:52.105Z,99.90
2018-09-11T04:06:20.197Z,99.90
2018-09-11T04:08:48.266Z,99.90
2018-09-11T04:11:16.368Z,99.90
2018-09-11T04:13:44.497Z,99.90
2018-09-11T04:16:12.560Z,99.90
2018-09-11T04:18:40.624Z,99.90
2018-09-11T04:21:08.724Z,99.90
2018-09-11T04:23:36.800Z,99.90
2018-09-11T04:26:05.098Z,99.90
2018-09-11T04:28:33.245Z,99.90
2018-09-11T04:31:01.410Z,99.90
2018-09-11T04:33:29.584Z,99.90
2018-09-11T04:35:57.810Z,99.90
2018-09-11T04:38:25.891Z,99.90
2018-09-11T04:40:53.962Z,99.90
2018-09-11T04:43:22.066Z,99.90
2018-09-11T04:45:50.122Z,99.90
2018-09-11T04:48:18.184Z,99.90
2018-09-11T04:50:46.245Z,99.90
2018-09-11T04:53:14.332Z,99.90
2018-09-11T04:55:42.399Z,99.90
2018-09-11T04:58:10.488Z,99.90
2018-09-11T05:00:38.585Z,99.90
2018-09-11T05:03:06.697Z,99.90
2018-09-11T05:05:34.797Z,99.90
2018-09-11T05:08:02.961Z,99.90
2018-09-11T05:10:31.108Z,99.90
2018-09-11T05:12:59.275Z,99.90
2018-09-11T05:15:27.413Z,99.90
2018-09-11T05:17:55.555Z,99.90
2018-09-11T05:20:23.749Z,99.90
2018-09-11T05:22:51.842Z,99.90
2018-09-11T05:25:19.933Z,99.90
2018-09-11T05:27:48.021Z,99.90
2018-09-11T05:30:16.102Z,99.90
2018-09-11T05:32:44.189Z,99.90
2018-09-11T05:35:12.295Z,99.90
2018-09-11T05:37:40.369Z,99.90
2018-09-11T05:40:08.460Z,99.90
2018-09-11T05:42:36.536Z,99.90
2018-09-11T05:45:04.669Z,99.90
2018-09-11T05:47:32.796Z,99.90
2018-09-11T05:50:00.969Z,99.90
2018-09-11T05:52:29.176Z,99.90
2018-09-11T05:54:57.276Z,99.90
2018-09-11T05:57:25.436Z,99.90
2018-09-11T05:59:53.575Z,99.90
2018-09-11T06:02:21.688Z,99.90
2018-09-11T06:04:49.760Z,99.90
2018-09-11T06:07:17.841Z,99.90
2018-09-11T06:09:46.857Z,99.90
2018-09-11T06:12:14.943Z,99.90
2018-09-11T06:14:43.048Z,99.90
2018-09-11T06:17:11.138Z,99.90
2018-09-11T06:19:39.228Z,99.90
2018-09-11T06:22:07.325Z,99.90
2018-09-11T06:24:35.449Z,99.90
2018-09-11T06:27:03.573Z,99.90
2018-09-11T06:29:31.706Z,99.90
2018-09-11T06:31:59.851Z,99.90
2018-09-11T06:34:28.024Z,99.90
2018-09-11T06:36:56.224Z,99.90
2018-09-11T06:39:24.237Z,99.90
2018-09-11T06:41:52.325Z,99.90
2018-09-11T06:44:20.419Z,99.90
2018-09-11T06:46:48.618Z,99.90
2018-09-11T06:49:16.820Z,99.90
2018-09-11T06:51:44.897Z,99.90
2018-09-11T06:54:13.109Z,99.90
2018-09-11T06:56:41.310Z,99.90
2018-09-11T06:59:09.483Z,99.90
2018-09-11T07:01:37.605Z,99.90
2018-09-11T07:04:06.072Z,99.90
2018-09-11T07:06:34.280Z,99.90
2018-09-11T07:09:02.547Z,99.90
2018-09-11T07:11:30.775Z,99.90
2018-09-11T07:13:58.911Z,99.90
2018-09-11T07:16:27.076Z,99.90
2018-09-11T07:18:55.179Z,99.90
2018-09-11T07:21:23.348Z,99.90
2018-09-11T07:23:51.420Z,99.90
2018-09-11T07:26:19.507Z,99.90
2018-09-11T07:28:47.576Z,99.90
2018-09-11T07:31:15.642Z,99.90
2018-09-11T07:33:44.145Z,99.90
2018-09-11T07:36:12.284Z,99.90
2018-09-11T07:38:40.344Z,99.90
2018-09-11T07:41:08.936Z,99.90
2018-09-11T07:43:37.068Z,99.90
2018-09-11T07:46:11.585Z,99.90
2018-09-11T07:48:39.681Z,99.90
2018-09-11T07:51:07.753Z,99.90
2018-09-11T07:53:35.918Z,99.90
2018-09-11T07:56:04.040Z,99.90
2018-09-11T07:58:32.197Z,99.90
2018-09-11T08:01:00.347Z,99.90
2018-09-11T08:03:32.359Z,99.90
2018-09-11T08:06:00.510Z,99.90
2018-09-11T08:08:28.732Z,99.90
2018-09-11T08:10:56.908Z,99.90
2018-09-11T08:13:25.085Z,99.90
2018-09-11T08:15:53.169Z,99.90
2018-09-11T08:18:21.248Z,99.90
2018-09-11T08:20:49.356Z,99.90
2018-09-11T08:23:17.435Z,99.90
2018-09-11T08:25:45.509Z,99.90
2018-09-11T08:28:13.585Z,99.90
2018-09-11T08:30:41.765Z,99.90
2018-09-11T08:33:09.832Z,99.90
2018-09-11T08:35:37.940Z,99.90
2018-09-11T08:38:06.051Z,99.90
2018-09-11T08:40:34.229Z,99.90
2018-09-11T08:43:02.450Z,99.90
2018-09-11T08:45:30.598Z,99.90
2018-09-11T08:47:58.866Z,99.90
2018-09-11T08:50:26.990Z,99.90
2018-09-11T08:52:55.065Z,99.90
2018-09-11T08:55:23.149Z,99.90
2018-09-11T08:57:51.229Z,99.90
2018-09-11T09:00:19.344Z,99.90
2018-09-11T09:02:47.424Z,99.90
2018-09-11T09:05:15.520Z,99.90
2018-09-11T09:07:43.625Z,99.90
2018-09-11T09:10:11.785Z,99.90
2018-09-11T09:12:39.761Z,99.90
2018-09-11T09:15:07.820Z,99.90
2018-09-11T09:17:35.964Z,99.90
2018-09-11T09:20:04.093Z,99.90
2018-09-11T09:22:32.194Z,99.90
2018-09-11T09:25:00.411Z,99.90
2018-09-11T09:27:28.624Z,99.90
2018-09-11T09:29:56.680Z,99.90
2018-09-11T09:32:24.830Z,99.90
2018-09-11T09:34:52.910Z,99.90
2018-09-11T09:37:21.061Z,99.90
2018-09-11T09:39:49.161Z,99.90
2018-09-11T09:42:17.281Z,99.90
2018-09-11T09:44:45.345Z,99.90
2018-09-11T09:47:13.484Z,99.90
2018-09-11T09:49:41.568Z,99.90
2018-09-11T09:52:09.654Z,99.90
2018-09-11T09:54:37.736Z,99.90
2018-09-11T09:57:05.905Z,99.90
2018-09-11T09:59:34.026Z,99.80
2018-09-11T10:02:08.339Z,99.90
2018-09-11T10:04:36.428Z,99.90
2018-09-11T10:07:04.690Z,99.90
2018-09-11T10:09:32.885Z,99.90
2018-09-11T10:12:01.061Z,99.90
2018-09-11T10:14:29.225Z,99.90
2018-09-11T10:16:57.528Z,99.90
2018-09-11T10:19:25.608Z,99.90
2018-09-11T10:21:53.673Z,99.50
2018-09-11T10:24:21.780Z,99.30
2018-09-11T10:26:49.858Z,99.40
2018-09-11T10:29:18.014Z,99.20
2018-09-11T10:31:46.165Z,99.10
2018-09-11T10:34:14.233Z,99.00
2018-09-11T10:36:42.309Z,99.00
2018-09-11T10:39:10.384Z,98.60
2018-09-11T10:41:38.468Z,99.90
2018-09-11T10:44:06.689Z,99.00
2018-09-11T10:46:34.780Z,98.90
2018-09-11T10:49:02.893Z,99.00
2018-09-11T10:51:31.081Z,99.20
2018-09-11T10:53:59.428Z,99.90
2018-09-11T10:56:27.720Z,99.40
2018-09-11T10:58:55.808Z,98.60
2018-09-11T11:01:23.948Z,98.00
2018-09-11T11:03:52.185Z,99.90
2018-09-11T11:06:20.286Z,98.20
2018-09-11T11:08:48.370Z,98.90
2018-09-11T11:11:16.433Z,98.70
2018-09-11T11:13:44.531Z,98.30
2018-09-11T11:16:12.620Z,98.30
2018-09-11T11:18:40.677Z,98.80
2018-09-11T11:21:08.737Z,98.60
2018-09-11T11:23:36.828Z,99.30
2018-09-11T11:26:04.921Z,98.00
2018-09-11T11:28:33.151Z,99.30
2018-09-11T11:31:01.393Z,98.70
2018-09-11T11:33:29.597Z,98.40
2018-09-11T11:35:57.803Z,98.40
2018-09-11T11:38:25.832Z,98.30
2018-09-11T11:40:53.904Z,98.30
2018-09-11T11:43:21.989Z,98.20
2018-09-11T11:45:50.612Z,98.40
2018-09-11T11:48:18.709Z,98.20
2018-09-11T11:50:46.772Z,98.70
2018-09-11T11:53:14.937Z,98.30
2018-09-11T11:55:43.049Z,98.30
2018-09-11T11:58:11.153Z,98.60
2018-09-11T12:00:39.225Z,98.40
2018-09-11T12:03:07.940Z,98.70
2018-09-11T12:05:36.025Z,98.60
2018-09-11T12:08:04.285Z,98.70
2018-09-11T12:10:32.397Z,98.80
2018-09-11T12:13:00.729Z,99.90
2018-09-11T12:15:28.849Z,99.10
2018-09-11T12:17:57.041Z,98.90
2018-09-11T12:20:25.137Z,98.90
2018-09-11T12:22:53.224Z,99.40
2018-09-11T12:25:21.429Z,99.00
2018-09-11T12:27:49.484Z,99.00
2018-09-11T12:30:17.600Z,99.00
2018-09-11T12:32:45.673Z,99.30
2018-09-11T12:35:13.766Z,99.30
2018-09-11T12:37:41.812Z,99.90
2018-09-11T12:40:09.922Z,99.10
2018-09-11T12:42:37.998Z,99.10
2018-09-11T12:45:06.148Z,99.30
2018-09-11T12:47:34.667Z,99.50
2018-09-11T12:50:02.419Z,99.60
2018-09-11T12:52:30.552Z,99.50
2018-09-11T12:54:58.642Z,99.70
2018-09-11T12:57:26.745Z,99.50
2018-09-11T12:59:54.898Z,99.80
2018-09-11T13:02:23.057Z,99.70
2018-09-11T13:04:51.147Z,99.90
2018-09-11T13:07:19.225Z,99.90
2018-09-11T13:09:47.288Z,99.90
2018-09-11T13:12:15.424Z,99.90
2018-09-11T13:14:43.534Z,99.90
2018-09-11T13:17:11.616Z,99.90
2018-09-11T13:19:39.731Z,99.90
2018-09-11T13:22:07.836Z,99.90
2018-09-11T13:24:35.930Z,99.90
2018-09-11T13:27:04.046Z,99.90
2018-09-11T13:29:32.144Z,99.90
2018-09-11T13:32:00.286Z,99.90
2018-09-11T13:34:28.546Z,99.90
2018-09-11T13:36:56.660Z,99.90
2018-09-11T13:39:24.732Z,99.90
2018-09-11T13:41:52.826Z,99.90
2018-09-11T13:44:20.924Z,99.90
2018-09-11T13:46:49.049Z,99.90
2018-09-11T13:49:17.145Z,99.90
2018-09-11T13:51:45.351Z,99.90
2018-09-11T13:54:13.409Z,99.90
2018-09-11T13:56:41.482Z,99.90
2018-09-11T13:59:09.569Z,99.90
2018-09-11T14:01:37.629Z,99.90
2018-09-11T14:04:05.730Z,99.90
2018-09-11T14:06:33.864Z,99.90
2018-09-11T14:09:02.101Z,99.90
2018-09-11T14:11:30.257Z,99.90
2018-09-11T14:13:58.390Z,99.90
2018-09-11T14:16:26.483Z,99.90
2018-09-11T14:18:54.578Z,99.90
2018-09-11T14:21:22.765Z,99.90
2018-09-11T14:23:50.789Z,99.90
2018-09-11T14:26:18.907Z,99.90
2018-09-11T14:28:46.989Z,99.90
2018-09-11T14:31:15.099Z,99.90
2018-09-11T14:33:43.212Z,99.90
2018-09-11T14:36:11.289Z,99.90
2018-09-11T14:38:39.600Z,99.90
2018-09-11T14:41:07.724Z,99.90
2018-09-11T14:43:35.833Z,99.90
2018-09-11T14:46:04.026Z,99.90
2018-09-11T14:48:32.277Z,99.90
2018-09-11T14:51:00.449Z,99.90
2018-09-11T14:53:28.658Z,99.90
2018-09-11T14:55:56.774Z,99.90
2018-09-11T14:58:24.865Z,99.90
2018-09-11T15:00:52.925Z,99.90
2018-09-11T15:03:21.052Z,99.90
2018-09-11T15:05:49.149Z,99.90
2018-09-11T15:08:17.232Z,99.90
2018-09-11T15:10:45.296Z,99.90
2018-09-11T15:13:13.362Z,99.90
2018-09-11T15:15:41.464Z,99.90
2018-09-11T15:18:09.546Z,99.90
2018-09-11T15:20:37.632Z,99.90
2018-09-11T15:23:05.788Z,99.90
2018-09-11T15:25:33.905Z,99.90
2018-09-11T15:28:02.053Z,99.90
2018-09-11T15:30:30.188Z,99.90
2018-09-11T15:32:58.411Z,99.90
2018-09-11T15:35:26.616Z,99.90
2018-09-11T15:37:54.714Z,99.90
2018-09-11T15:40:22.793Z,99.90
2018-09-11T15:42:50.853Z,99.90
2018-09-11T15:45:18.933Z,99.90
2018-09-11T15:47:47.010Z,99.90
2018-09-11T15:50:15.081Z,99.90
2018-09-11T15:52:43.165Z,99.90
2018-09-11T15:55:11.253Z,99.90
2018-09-11T15:57:39.365Z,99.90
2018-09-11T16:00:07.570Z,99.90
2018-09-11T16:02:35.677Z,99.90
2018-09-11T16:05:04.069Z,99.90
2018-09-11T16:07:32.226Z,99.90
2018-09-11T16:10:00.393Z,99.90
2018-09-11T16:12:28.618Z,99.90
2018-09-11T16:14:56.819Z,99.90
2018-09-11T16:17:24.908Z,99.90
2018-09-11T16:19:52.983Z,99.90
2018-09-11T16:22:21.108Z,99.90
2018-09-11T16:24:49.169Z,99.90
2018-09-11T16:27:17.240Z,99.90
2018-09-11T16:29:45.378Z,99.90
2018-09-11T16:32:13.376Z,99.90
2018-09-11T16:34:41.471Z,99.90
2018-09-11T16:37:09.560Z,99.90
2018-09-11T16:39:37.667Z,99.90
2018-09-11T16:42:05.957Z,99.90
2018-09-11T16:44:34.202Z,99.90
2018-09-11T16:47:02.313Z,99.90
2018-09-11T16:49:30.597Z,99.90
2018-09-11T16:51:58.765Z,99.90
2018-09-11T16:54:26.914Z,99.90
2018-09-11T16:56:54.980Z,99.90
2018-09-11T16:59:23.086Z,99.90
2018-09-11T17:01:51.165Z,99.90
2018-09-11T17:04:19.224Z,99.90
2018-09-11T17:06:47.329Z,99.90
2018-09-11T17:09:15.395Z,99.90
2018-09-11T17:11:43.461Z,99.90
2018-09-11T17:14:11.551Z,99.90
2018-09-11T17:16:39.621Z,99.90
2018-09-11T17:19:07.713Z,99.90
2018-09-11T17:21:35.792Z,99.90
2018-09-11T17:24:03.926Z,99.90
2018-09-11T17:26:32.048Z,99.90
2018-09-11T17:29:00.291Z,99.90
2018-09-11T17:31:28.481Z,99.90
2018-09-11T17:33:56.572Z,99.90
2018-09-11T17:36:24.661Z,99.90
2018-09-11T17:38:52.941Z,99.90
2018-09-11T17:41:21.009Z,99.90
2018-09-11T17:43:49.085Z,99.90
2018-09-11T17:46:17.252Z,99.90
2018-09-11T17:48:45.431Z,99.90
2018-09-11T17:51:13.433Z,99.90
2018-09-11T17:53:41.520Z,99.90
2018-09-11T17:56:09.590Z,99.90
2018-09-11T17:58:37.661Z,99.90
2018-09-11T18:01:05.864Z,99.90
2018-09-11T18:03:33.948Z,99.90
2018-09-11T18:06:02.074Z,99.90
2018-09-11T18:08:30.248Z,99.90
2018-09-11T18:10:58.321Z,99.90
2018-09-11T18:13:26.423Z,99.90
2018-09-11T18:15:54.500Z,99.90
2018-09-11T18:18:22.592Z,99.90
2018-09-11T18:20:50.658Z,99.90
2018-09-11T18:23:18.726Z,99.90
2018-09-11T18:25:46.912Z,99.90
2018-09-11T18:28:15.043Z,99.90
2018-09-11T18:30:43.088Z,99.90
2018-09-11T18:33:11.148Z,99.90
2018-09-11T18:35:39.292Z,99.90
2018-09-11T18:38:07.388Z,99.90
2018-09-11T18:40:35.443Z,99.90
2018-09-11T18:43:03.560Z,99.90
2018-09-11T18:45:31.658Z,99.90
2018-09-11T18:47:59.774Z,99.90
2018-09-11T18:50:27.885Z,99.90
2018-09-11T18:52:55.947Z,99.90
2018-09-11T18:55:24.044Z,99.90
2018-09-11T18:57:52.169Z,99.90
2018-09-11T19:00:24.458Z,99.90
2018-09-11T19:02:52.516Z,99.90
2018-09-11T19:05:20.589Z,99.90
2018-09-11T19:07:48.637Z,99.90
2018-09-11T19:10:16.732Z,99.90
2018-09-11T19:12:44.855Z,99.90
2018-09-11T19:15:13.076Z,99.90
2018-09-11T19:17:41.181Z,99.90
2018-09-11T19:20:09.299Z,99.90
2018-09-11T19:22:37.333Z,99.90
2018-09-11T19:25:05.929Z,99.90
2018-09-11T19:27:34.080Z,99.90
2018-09-11T19:30:02.201Z,99.90
2018-09-11T19:32:30.433Z,99.90
2018-09-11T19:34:58.556Z,99.90
2018-09-11T19:37:26.724Z,99.90
2018-09-11T19:39:54.773Z,99.90
2018-09-11T19:42:22.920Z,99.90
2018-09-11T19:44:50.941Z,99.90
2018-09-11T19:47:19.090Z,99.90
2018-09-11T19:49:47.161Z,99.90
2018-09-11T19:52:15.229Z,99.90
2018-09-11T19:54:43.364Z,99.90
2018-09-11T19:57:11.453Z,99.90
2018-09-11T19:59:39.581Z,99.90
2018-09-11T20:02:07.681Z,99.90
2018-09-11T20:04:35.753Z,99.90
2018-09-11T20:07:03.852Z,99.90
2018-09-11T20:09:31.949Z,99.90
2018-09-11T20:12:00.056Z,99.90
2018-09-11T20:14:28.170Z,99.90
2018-09-11T20:16:56.240Z,99.90
2018-09-11T20:19:24.429Z,99.90
2018-09-11T20:21:52.572Z,99.90
2018-09-11T20:24:20.659Z,99.90
2018-09-11T20:26:48.833Z,99.90
2018-09-11T20:29:16.948Z,99.90
2018-09-11T20:31:45.051Z,99.90
2018-09-11T20:34:13.137Z,99.90
2018-09-11T20:36:41.236Z,99.90
2018-09-11T20:39:10.522Z,99.90
2018-09-11T20:41:38.625Z,99.90
2018-09-11T20:44:07.241Z,99.90
2018-09-11T20:46:35.314Z,99.90
2018-09-11T20:49:03.436Z,99.90
2018-09-11T20:51:31.529Z,99.90
2018-09-11T20:53:59.671Z,99.90
2018-09-11T20:56:27.737Z,99.90
2018-09-11T20:58:55.805Z,99.90
2018-09-11T21:01:23.920Z,99.90
2018-09-11T21:03:51.997Z,99.90
2018-09-11T21:06:20.093Z,99.90
2018-09-11T21:08:48.153Z,99.90
2018-09-11T21:11:16.280Z,99.90
2018-09-11T21:13:44.688Z,99.90
2018-09-11T21:16:12.792Z,99.90
2018-09-11T21:18:47.684Z,99.90
2018-09-11T21:21:15.784Z,99.90
2018-09-11T21:23:43.869Z,99.90
2018-09-11T21:26:11.950Z,99.90
2018-09-11T21:28:40.040Z,99.90
2018-09-11T21:31:08.226Z,99.90
2018-09-11T21:33:36.308Z,99.90
2018-09-11T21:36:04.377Z,99.90
2018-09-11T21:38:32.464Z,99.90
2018-09-11T21:41:00.622Z,99.90
2018-09-11T21:43:28.754Z,99.90
2018-09-11T21:45:56.837Z,99.90
2018-09-11T21:48:24.917Z,99.90
2018-09-11T21:50:52.986Z,99.90
2018-09-11T21:53:21.057Z,99.90
2018-09-11T21:55:49.131Z,99.90
2018-09-11T21:58:17.240Z,99.90
2018-09-11T22:00:50.646Z,99.90
2018-09-11T22:03:18.705Z,99.90
2018-09-11T22:05:46.868Z,99.90
2018-09-11T22:08:14.934Z,99.90
2018-09-11T22:10:43.037Z,99.90
2018-09-11T22:13:11.194Z,99.90
2018-09-11T22:15:39.288Z,99.90
2018-09-11T22:18:07.439Z,99.90
2018-09-11T22:20:35.527Z,99.90
2018-09-11T22:23:03.577Z,99.90
2018-09-11T22:25:31.669Z,99.90
2018-09-11T22:27:59.778Z,99.90
2018-09-11T22:30:27.865Z,99.90
2018-09-11T22:32:56.014Z,99.90
2018-09-11T22:35:24.196Z,99.90
2018-09-11T22:37:52.281Z,99.90
2018-09-11T22:40:20.380Z,99.90
2018-09-11T22:42:48.460Z,99.90
2018-09-11T22:45:16.544Z,99.90
2018-09-11T22:47:44.625Z,99.90
2018-09-11T22:50:12.696Z,99.90
2018-09-11T22:52:40.772Z,99.90
2018-09-11T22:55:08.864Z,99.90
2018-09-11T22:57:36.937Z,99.90
2018-09-11T23:00:05.050Z,99.90
2018-09-11T23:02:33.268Z,99.90
2018-09-11T23:05:01.362Z,99.90
2018-09-11T23:07:29.445Z,99.90
2018-09-11T23:09:57.710Z,99.90
2018-09-11T23:12:25.789Z,99.90
2018-09-11T23:14:53.873Z,99.90
2018-09-11T23:17:21.949Z,99.90
2018-09-11T23:19:50.017Z,99.90
2018-09-11T23:22:18.093Z,99.90
2018-09-11T23:24:46.161Z,99.90
2018-09-11T23:27:14.233Z,99.90
2018-09-11T23:29:42.301Z,99.90
2018-09-11T23:32:10.377Z,99.90
2018-09-11T23:34:38.433Z,99.90
2018-09-11T23:37:06.504Z,99.90
2018-09-11T23:39:34.630Z,99.90
2018-09-11T23:42:02.701Z,99.90
2018-09-11T23:44:30.829Z,99.90
2018-09-11T23:46:58.961Z,99.90
2018-09-11T23:49:27.059Z,99.90
2018-09-11T23:51:55.133Z,99.90
2018-09-11T23:54:23.239Z,99.90
2018-09-11T23:56:51.326Z,99.90
2018-09-11T23:59:19.424Z,99.90
